Time;durP1;ratioP1;P1;durP2;ratioP2;P2;SDS_P1;SDS_P2;PMS_P1;PMS_P2;Temp;Humidity;BMP_temperature;BMP_pressure;BME280_temperature;BME280_humidity;BME280_pressure;Samples;Min_cycle;Max_cycle;Signal;HPM_P1;HPM_P2
2024/04/02 00:00:29;;;;;;;4.85;1.48;;;;;;;;;;6119529;23;20108;-73
2024/04/02 00:02:55;;;;;;;1.50;1.10;;;;;;;;;;6141210;23;20029;-73
2024/04/02 00:05:20;;;;;;;4.72;1.20;;;;;;;;;;6147721;23;20025;-72
2024/04/02 00:07:46;;;;;;;2.85;1.30;;;;;;;;;;6116083;23;20063;-75
2024/04/02 00:10:11;;;;;;;2.33;1.20;;;;;;;;;;6146218;23;20522;-72
2024/04/02 00:12:37;;;;;;;2.42;1.35;;;;;;;;;;6140871;23;20067;-78
2024/04/02 00:15:05;;;;;;;2.67;1.33;;;;;;;;;;6137724;23;20506;-75
2024/04/02 00:17:31;;;;;;;2.67;1.35;;;;;;;;;;6147891;23;20563;-76
2024/04/02 00:19:56;;;;;;;2.13;1.30;;;;;;;;;;6120143;23;20108;-77
2024/04/02 00:22:22;;;;;;;2.13;1.15;;;;;;;;;;6149491;23;20025;-77
2024/04/02 00:24:47;;;;;;;2.40;1.00;;;;;;;;;;6151605;23;20074;-79
2024/04/02 00:27:13;;;;;;;2.60;1.20;;;;;;;;;;6136448;23;20029;-75
2024/04/02 00:29:38;;;;;;;2.55;1.35;;;;;;;;;;6149584;23;20025;-72
2024/04/02 00:32:04;;;;;;;1.38;1.10;;;;;;;;;;6143518;23;20031;-73
2024/04/02 00:34:29;;;;;;;2.65;1.10;;;;;;;;;;6150242;23;20032;-73
2024/04/02 00:36:54;;;;;;;2.88;1.23;;;;;;;;;;6150219;23;20084;-74
2024/04/02 00:39:20;;;;;;;2.45;1.27;;;;;;;;;;6139200;23;20017;-73
2024/04/02 00:41:45;;;;;;;1.77;1.15;;;;;;;;;;6148447;23;20028;-73
2024/04/02 00:44:11;;;;;;;2.75;1.20;;;;;;;;;;6144112;23;20021;-72
2024/04/02 00:46:36;;;;;;;2.60;1.10;;;;;;;;;;6151036;23;20048;-72
2024/04/02 00:49:02;;;;;;;4.03;1.30;;;;;;;;;;6149143;23;20024;-72
2024/04/02 00:51:27;;;;;;;1.80;1.10;;;;;;;;;;6144526;23;20035;-73
2024/04/02 00:53:53;;;;;;;1.85;1.13;;;;;;;;;;6145318;23;20020;-72
2024/04/02 00:56:18;;;;;;;2.83;1.10;;;;;;;;;;6139685;23;20060;-72
2024/04/02 00:58:44;;;;;;;1.95;1.10;;;;;;;;;;6126773;23;20025;-72
2024/04/02 01:01:09;;;;;;;1.23;0.90;;;;;;;;;;6142881;23;20029;-72
2024/04/02 01:03:35;;;;;;;2.72;1.20;;;;;;;;;;6150650;23;20095;-72
2024/04/02 01:06:00;;;;;;;4.43;1.40;;;;;;;;;;6150465;23;20021;-72
2024/04/02 01:08:26;;;;;;;2.38;1.20;;;;;;;;;;6137615;23;20017;-72
2024/04/02 01:10:52;;;;;;;2.60;1.20;;;;;;;;;;6172726;23;20024;-72
2024/04/02 01:13:18;;;;;;;2.10;1.30;;;;;;;;;;6141857;23;20022;-73
2024/04/02 01:15:44;;;;;;;4.38;1.40;;;;;;;;;;6150750;23;20029;-72
2024/04/02 01:18:09;;;;;;;8.23;1.60;;;;;;;;;;6149952;23;20032;-72
2024/04/02 01:20:35;;;;;;;2.70;1.30;;;;;;;;;;6116830;23;20024;-72
2024/04/02 01:23:01;;;;;;;2.78;1.30;;;;;;;;;;6145306;23;20024;-72
2024/04/02 01:25:26;;;;;;;2.47;1.20;;;;;;;;;;6142930;23;20099;-71
2024/04/02 01:27:55;;;;;;;3.38;1.30;;;;;;;;;;6152037;23;20635;-71
2024/04/02 01:30:23;;;;;;;2.03;1.35;;;;;;;;;;6151606;23;20032;-71
2024/04/02 01:32:55;;;;;;;2.20;1.45;;;;;;;;;;6148275;23;20021;-71
2024/04/02 01:35:23;;;;;;;2.25;1.40;;;;;;;;;;6124781;23;20064;-71
2024/04/02 01:37:57;;;;;;;2.13;1.40;;;;;;;;;;6148344;23;20023;-72
2024/04/02 01:40:31;;;;;;;3.70;1.70;;;;;;;;;;6150932;23;20021;-71
2024/04/02 01:43:06;;;;;;;1.75;1.25;;;;;;;;;;6124096;23;20025;-71
2024/04/02 01:45:41;;;;;;;3.70;1.23;;;;;;;;;;6152124;23;20025;-71
2024/04/02 01:48:16;;;;;;;3.42;1.40;;;;;;;;;;6152174;23;20530;-71
2024/04/02 01:50:41;;;;;;;2.70;1.50;;;;;;;;;;6144028;23;20017;-71
2024/04/02 01:53:07;;;;;;;3.45;1.67;;;;;;;;;;6144938;23;20031;-71
2024/04/02 01:55:32;;;;;;;3.83;1.40;;;;;;;;;;6143856;23;20489;-71
2024/04/02 01:57:58;;;;;;;3.45;1.50;;;;;;;;;;6149353;23;20067;-71
2024/04/02 02:00:23;;;;;;;6.07;1.50;;;;;;;;;;6144206;23;20619;-71
2024/04/02 02:02:49;;;;;;;4.35;1.45;;;;;;;;;;6149831;23;20032;-72
2024/04/02 02:05:15;;;;;;;3.25;1.70;;;;;;;;;;6145589;23;20025;-71
2024/04/02 02:07:40;;;;;;;3.20;1.40;;;;;;;;;;6137928;23;20028;-71
2024/04/02 02:10:05;;;;;;;3.13;1.55;;;;;;;;;;6149782;23;20032;-72
2024/04/02 02:12:31;;;;;;;4.72;1.48;;;;;;;;;;6142849;23;20566;-71
2024/04/02 02:14:57;;;;;;;5.03;1.42;;;;;;;;;;6125886;23;20025;-71
2024/04/02 02:17:22;;;;;;;3.42;1.48;;;;;;;;;;6149383;23;20084;-71
2024/04/02 02:19:47;;;;;;;5.13;1.33;;;;;;;;;;6136089;23;20033;-72
2024/04/02 02:22:13;;;;;;;4.97;1.45;;;;;;;;;;6144658;23;20028;-71
2024/04/02 02:24:38;;;;;;;3.05;1.40;;;;;;;;;;6142584;23;20025;-71
2024/04/02 02:27:04;;;;;;;4.10;1.80;;;;;;;;;;6150262;23;20387;-71
2024/04/02 02:29:29;;;;;;;4.15;1.50;;;;;;;;;;6125351;23;20405;-71
2024/04/02 02:31:55;;;;;;;5.40;1.65;;;;;;;;;;6144098;23;20028;-71
2024/04/02 02:34:21;;;;;;;3.67;1.50;;;;;;;;;;6144183;23;20044;-71
2024/04/02 02:36:46;;;;;;;3.85;1.52;;;;;;;;;;6138989;23;20036;-71
2024/04/02 02:39:12;;;;;;;3.92;1.30;;;;;;;;;;6149702;23;20512;-72
2024/04/02 02:41:37;;;;;;;4.35;1.70;;;;;;;;;;6143335;23;20029;-72
2024/04/02 02:44:03;;;;;;;2.88;1.50;;;;;;;;;;6148780;23;20021;-72
2024/04/02 02:46:29;;;;;;;4.75;1.58;;;;;;;;;;6147786;23;20021;-71
2024/04/02 02:48:54;;;;;;;2.72;1.40;;;;;;;;;;6138162;23;20502;-72
2024/04/02 02:51:20;;;;;;;2.47;1.50;;;;;;;;;;6146188;23;20450;-72
2024/04/02 02:53:45;;;;;;;5.47;1.48;;;;;;;;;;6144072;23;20447;-72
2024/04/02 02:56:11;;;;;;;3.65;1.42;;;;;;;;;;6173768;23;20708;-72
2024/04/02 02:58:36;;;;;;;3.33;1.50;;;;;;;;;;6150054;23;20459;-71
2024/04/02 03:01:05;;;;;;;4.85;1.67;;;;;;;;;;6139752;23;20091;-72
2024/04/02 03:03:31;;;;;;;2.13;1.38;;;;;;;;;;6168025;23;20025;-72
2024/04/02 03:05:56;;;;;;;3.85;1.40;;;;;;;;;;6141821;23;20029;-72
2024/04/02 03:08:22;;;;;;;4.18;1.60;;;;;;;;;;6149131;23;20021;-72
2024/04/02 03:11:01;;;;;;;2.83;1.50;;;;;;;;;;6124723;23;20111;-72
2024/04/02 03:13:27;;;;;;;4.32;1.65;;;;;;;;;;6142640;23;20017;-72
2024/04/02 03:15:52;;;;;;;5.13;1.75;;;;;;;;;;6146294;23;20510;-72
2024/04/02 03:18:18;;;;;;;4.57;2.08;;;;;;;;;;6138133;23;20369;-73
2024/04/02 03:20:43;;;;;;;3.25;1.40;;;;;;;;;;6124944;23;20025;-73
2024/04/02 03:23:10;;;;;;;3.92;1.60;;;;;;;;;;6149660;23;20025;-73
2024/04/02 03:25:36;;;;;;;4.30;1.83;;;;;;;;;;6117538;23;20036;-71
2024/04/02 03:28:01;;;;;;;3.70;1.70;;;;;;;;;;6125612;23;20052;-71
2024/04/02 03:30:27;;;;;;;3.42;1.70;;;;;;;;;;6135690;23;20021;-70
2024/04/02 03:32:52;;;;;;;6.38;1.80;;;;;;;;;;6149192;23;20549;-71
2024/04/02 03:35:18;;;;;;;7.78;1.80;;;;;;;;;;6140278;23;20486;-71
2024/04/02 03:37:44;;;;;;;2.03;1.42;;;;;;;;;;6148443;23;20074;-71
2024/04/02 03:40:09;;;;;;;3.90;1.65;;;;;;;;;;6148324;23;20098;-71
2024/04/02 03:42:35;;;;;;;3.55;1.55;;;;;;;;;;6113515;23;20711;-71
2024/04/02 03:45:00;;;;;;;3.30;1.60;;;;;;;;;;6144703;23;20311;-71
2024/04/02 03:47:26;;;;;;;4.50;1.63;;;;;;;;;;6143126;23;20036;-71
2024/04/02 03:49:52;;;;;;;4.53;1.75;;;;;;;;;;6124205;23;20017;-70
2024/04/02 03:52:17;;;;;;;5.32;1.60;;;;;;;;;;6148978;23;20346;-70
2024/04/02 03:54:42;;;;;;;7.35;1.70;;;;;;;;;;6119570;23;20025;-70
2024/04/02 03:57:08;;;;;;;3.60;1.20;;;;;;;;;;6146868;23;20056;-71
2024/04/02 03:59:34;;;;;;;4.78;1.83;;;;;;;;;;6139738;23;20021;-71
2024/04/02 04:02:00;;;;;;;5.80;1.70;;;;;;;;;;6151299;23;20806;-71
2024/04/02 04:04:25;;;;;;;4.05;1.50;;;;;;;;;;6150743;23;20062;-70
2024/04/02 04:06:51;;;;;;;3.80;1.70;;;;;;;;;;6144687;23;20462;-71
2024/04/02 04:09:16;;;;;;;5.22;1.83;;;;;;;;;;6125990;23;20048;-71
2024/04/02 04:11:42;;;;;;;4.70;1.70;;;;;;;;;;6139396;23;20067;-72
2024/04/02 04:14:07;;;;;;;4.88;1.50;;;;;;;;;;6146196;23;20055;-71
2024/04/02 04:16:33;;;;;;;4.82;1.75;;;;;;;;;;6151107;23;20089;-71
2024/04/02 04:18:58;;;;;;;7.65;1.65;;;;;;;;;;6143679;23;20097;-71
2024/04/02 04:21:23;;;;;;;3.95;2.03;;;;;;;;;;6150653;23;20025;-71
2024/04/02 04:23:49;;;;;;;3.65;1.48;;;;;;;;;;6143395;23;20021;-71
2024/04/02 04:26:14;;;;;;;4.07;1.77;;;;;;;;;;6146161;23;20451;-71
2024/04/02 04:28:40;;;;;;;3.95;1.52;;;;;;;;;;6145989;23;20043;-71
2024/04/02 04:31:05;;;;;;;5.68;1.90;;;;;;;;;;6142896;23;20061;-71
2024/04/02 04:33:31;;;;;;;4.38;1.80;;;;;;;;;;6151116;23;20025;-71
2024/04/02 04:35:57;;;;;;;4.43;1.67;;;;;;;;;;6143444;23;20032;-70
2024/04/02 04:38:25;;;;;;;3.83;1.30;;;;;;;;;;6150433;23;20395;-70
2024/04/02 04:40:50;;;;;;;4.28;1.60;;;;;;;;;;6168720;23;20079;-71
2024/04/02 04:43:17;;;;;;;4.75;1.75;;;;;;;;;;6141272;23;20112;-71
2024/04/02 04:45:51;;;;;;;3.97;1.80;;;;;;;;;;6151112;23;20028;-71
2024/04/02 04:48:17;;;;;;;4.07;1.70;;;;;;;;;;6143008;23;20029;-70
2024/04/02 04:50:43;;;;;;;4.28;1.63;;;;;;;;;;6151596;23;20029;-72
2024/04/02 04:53:09;;;;;;;5.13;1.73;;;;;;;;;;6168769;23;20025;-72
2024/04/02 04:55:34;;;;;;;5.18;1.75;;;;;;;;;;6145762;23;20025;-70
2024/04/02 04:58:00;;;;;;;5.45;1.92;;;;;;;;;;6146178;23;20075;-70
2024/04/02 05:00:26;;;;;;;4.63;1.80;;;;;;;;;;6143184;23;20025;-71
2024/04/02 05:02:51;;;;;;;3.65;1.60;;;;;;;;;;6150353;23;20085;-71
2024/04/02 05:05:17;;;;;;;5.78;1.70;;;;;;;;;;6143895;23;20056;-71
2024/04/02 05:07:54;;;;;;;4.80;1.83;;;;;;;;;;6150144;23;20032;-71
2024/04/02 05:10:19;;;;;;;7.22;1.95;;;;;;;;;;6140927;23;20040;-71
2024/04/02 05:12:45;;;;;;;6.40;1.73;;;;;;;;;;6143571;23;20396;-71
2024/04/02 05:15:10;;;;;;;6.85;1.92;;;;;;;;;;6150957;23;20028;-71
2024/04/02 05:17:36;;;;;;;4.80;1.85;;;;;;;;;;6144169;23;20036;-71
2024/04/02 05:20:01;;;;;;;4.30;1.65;;;;;;;;;;6150587;23;20025;-71
2024/04/02 05:22:26;;;;;;;9.07;1.80;;;;;;;;;;6145688;23;20076;-71
2024/04/02 05:24:52;;;;;;;7.78;1.80;;;;;;;;;;6140050;23;20021;-71
2024/04/02 05:27:17;;;;;;;5.07;1.55;;;;;;;;;;6148237;23;20021;-71
2024/04/02 05:29:46;;;;;;;5.90;1.88;;;;;;;;;;6117929;23;20021;-71
2024/04/02 05:32:11;;;;;;;4.13;1.60;;;;;;;;;;6149440;23;20076;-71
2024/04/02 05:34:37;;;;;;;5.38;1.73;;;;;;;;;;6145541;23;20025;-73
2024/04/02 05:37:03;;;;;;;4.00;1.60;;;;;;;;;;6120168;23;20021;-72
2024/04/02 05:39:28;;;;;;;5.50;1.77;;;;;;;;;;6149520;23;20629;-72
2024/04/02 05:41:54;;;;;;;4.85;1.48;;;;;;;;;;6143657;23;20587;-72
2024/04/02 05:44:20;;;;;;;7.18;2.00;;;;;;;;;;6150065;23;20021;-72
2024/04/02 05:46:45;;;;;;;4.05;1.70;;;;;;;;;;6143166;23;20025;-72
2024/04/02 05:49:10;;;;;;;4.97;1.67;;;;;;;;;;6145903;23;20024;-71
2024/04/02 05:51:36;;;;;;;4.63;1.83;;;;;;;;;;6144614;23;20096;-72
2024/04/02 05:54:03;;;;;;;5.38;2.00;;;;;;;;;;6143944;23;20363;-71
2024/04/02 05:56:28;;;;;;;3.80;2.20;;;;;;;;;;6149286;23;20699;-71
2024/04/02 05:58:54;;;;;;;5.00;1.80;;;;;;;;;;6144122;23;20028;-72
2024/04/02 06:01:20;;;;;;;4.53;1.70;;;;;;;;;;6148694;23;20032;-72
2024/04/02 06:03:45;;;;;;;4.32;1.95;;;;;;;;;;6146203;23;20028;-72
2024/04/02 06:06:11;;;;;;;3.50;2.00;;;;;;;;;;6138676;23;20028;-71
2024/04/02 06:08:36;;;;;;;7.45;2.35;;;;;;;;;;6150680;23;20035;-72
2024/04/02 06:11:04;;;;;;;5.68;1.98;;;;;;;;;;6118252;23;20021;-72
2024/04/02 06:13:30;;;;;;;4.97;2.13;;;;;;;;;;6149901;23;20025;-72
2024/04/02 06:15:55;;;;;;;5.70;1.90;;;;;;;;;;6149757;23;20024;-72
2024/04/02 06:18:23;;;;;;;6.75;2.42;;;;;;;;;;6138099;23;20024;-73
2024/04/02 06:20:56;;;;;;;4.30;2.00;;;;;;;;;;6120846;23;20017;-73
2024/04/02 06:23:21;;;;;;;7.53;1.98;;;;;;;;;;6142305;23;20017;-73
2024/04/02 06:25:47;;;;;;;7.15;2.00;;;;;;;;;;6149647;23;20450;-73
2024/04/02 06:28:12;;;;;;;5.18;2.10;;;;;;;;;;6148886;23;20024;-72
2024/04/02 06:30:38;;;;;;;6.60;2.30;;;;;;;;;;6120679;23;20021;-72
2024/04/02 06:33:04;;;;;;;6.22;2.10;;;;;;;;;;6147026;23;20021;-73
2024/04/02 06:35:29;;;;;;;5.97;1.90;;;;;;;;;;6138405;23;20511;-73
2024/04/02 06:37:54;;;;;;;4.30;1.95;;;;;;;;;;6149850;23;20119;-73
2024/04/02 06:40:20;;;;;;;6.55;2.15;;;;;;;;;;6143579;23;20020;-73
2024/04/02 06:42:45;;;;;;;8.10;2.70;;;;;;;;;;6148882;23;20364;-73
2024/04/02 06:45:11;;;;;;;9.98;2.47;;;;;;;;;;6148504;23;20035;-73
2024/04/02 06:47:36;;;;;;;9.63;2.20;;;;;;;;;;6136114;23;20208;-73
2024/04/02 06:50:02;;;;;;;9.98;2.78;;;;;;;;;;6147581;23;20028;-73
2024/04/02 06:52:27;;;;;;;4.47;1.90;;;;;;;;;;6143285;23;20079;-74
2024/04/02 06:54:53;;;;;;;6.57;2.17;;;;;;;;;;6125241;23;20060;-76
2024/04/02 06:57:18;;;;;;;10.82;2.33;;;;;;;;;;6149219;23;20024;-76
2024/04/02 06:59:45;;;;;;;5.10;1.73;;;;;;;;;;6136032;23;20028;-75
2024/04/02 07:02:10;;;;;;;5.97;2.00;;;;;;;;;;6143495;23;20032;-74
2024/04/02 07:04:36;;;;;;;7.90;2.92;;;;;;;;;;6140728;23;20053;-74
2024/04/02 07:07:02;;;;;;;6.82;2.25;;;;;;;;;;6148882;23;20021;-72
2024/04/02 07:09:29;;;;;;;9.07;3.20;;;;;;;;;;6149696;23;20036;-74
2024/04/02 07:11:55;;;;;;;8.15;2.60;;;;;;;;;;6142515;23;20133;-73
2024/04/02 07:14:20;;;;;;;6.75;2.35;;;;;;;;;;6148825;23;20702;-73
2024/04/02 07:16:46;;;;;;;7.75;2.65;;;;;;;;;;6137838;23;20633;-73
2024/04/02 07:19:11;;;;;;;5.90;2.50;;;;;;;;;;6148903;23;20650;-73
2024/04/02 07:21:36;;;;;;;7.82;2.35;;;;;;;;;;6125064;23;20025;-72
2024/04/02 07:24:02;;;;;;;6.38;2.75;;;;;;;;;;6142485;23;20458;-72
2024/04/02 07:26:27;;;;;;;5.88;2.30;;;;;;;;;;6149290;23;20025;-73
2024/04/02 07:28:53;;;;;;;7.68;2.47;;;;;;;;;;6116266;23;20340;-74
2024/04/02 07:31:24;;;;;;;5.75;2.38;;;;;;;;;;6146892;23;20017;-74
2024/04/02 07:33:49;;;;;;;10.82;2.90;;;;;;;;;;6126092;23;20021;-75
2024/04/02 07:36:15;;;;;;;8.98;2.28;;;;;;;;;;6144421;23;20028;-75
2024/04/02 07:38:40;;;;;;;7.93;2.55;;;;;;;;;;6151239;23;20017;-71
2024/04/02 07:41:06;;;;;;;7.78;2.42;;;;;;;;;;6144181;23;20017;-72
2024/04/02 07:43:31;;;;;;;7.72;2.20;;;;;;;;;;6121849;23;20109;-73
2024/04/02 07:45:57;;;;;;;8.77;3.28;;;;;;;;;;6140947;23;20790;-73
2024/04/02 07:48:22;;;;;;;9.25;2.03;;;;;;;;;;6149355;23;20668;-72
2024/04/02 07:50:49;;;;;;;9.93;2.90;;;;;;;;;;6126979;23;20532;-72
2024/04/02 07:53:14;;;;;;;6.57;2.53;;;;;;;;;;6144364;23;20320;-72
2024/04/02 07:55:40;;;;;;;8.90;2.67;;;;;;;;;;6127310;23;20036;-72
2024/04/02 07:58:05;;;;;;;10.98;2.88;;;;;;;;;;6139405;23;20021;-72
2024/04/02 08:00:32;;;;;;;12.82;3.00;;;;;;;;;;6147212;23;20028;-72
2024/04/02 08:02:57;;;;;;;11.63;2.83;;;;;;;;;;6125511;23;20028;-72
2024/04/02 08:05:25;;;;;;;11.45;2.53;;;;;;;;;;6143827;23;20099;-72
2024/04/02 08:07:51;;;;;;;17.23;3.15;;;;;;;;;;6150396;23;20729;-72
2024/04/02 08:10:16;;;;;;;9.02;2.53;;;;;;;;;;6144015;23;20021;-72
2024/04/02 08:12:42;;;;;;;8.63;2.25;;;;;;;;;;6146657;23;20459;-72
2024/04/02 08:15:08;;;;;;;10.35;2.50;;;;;;;;;;6145844;23;20025;-72
2024/04/02 08:17:33;;;;;;;11.25;2.83;;;;;;;;;;6119155;23;20025;-72
2024/04/02 08:19:59;;;;;;;8.45;2.00;;;;;;;;;;6151634;23;20021;-72
2024/04/02 08:22:24;;;;;;;9.20;2.58;;;;;;;;;;6143834;23;20033;-72
2024/04/02 08:24:50;;;;;;;12.18;2.78;;;;;;;;;;6126722;23;20139;-72
2024/04/02 08:27:16;;;;;;;12.55;2.38;;;;;;;;;;6147333;23;20021;-71
2024/04/02 08:29:41;;;;;;;9.60;2.70;;;;;;;;;;6141155;23;20021;-72
2024/04/02 08:32:07;;;;;;;10.52;2.30;;;;;;;;;;6150292;23;20100;-72
2024/04/02 08:34:32;;;;;;;9.65;1.98;;;;;;;;;;6143687;23;20552;-72
2024/04/02 08:36:59;;;;;;;8.20;2.10;;;;;;;;;;6126350;23;20021;-72
2024/04/02 08:39:24;;;;;;;16.83;2.63;;;;;;;;;;6146948;23;20028;-72
2024/04/02 08:41:51;;;;;;;12.32;2.85;;;;;;;;;;6141729;23;20025;-71
2024/04/02 08:44:17;;;;;;;8.73;2.20;;;;;;;;;;6145257;23;20021;-72
2024/04/02 08:46:42;;;;;;;11.15;2.13;;;;;;;;;;6143146;23;20054;-72
2024/04/02 08:49:08;;;;;;;10.50;2.10;;;;;;;;;;6150508;23;20089;-72
2024/04/02 08:51:33;;;;;;;13.15;1.98;;;;;;;;;;6144609;23;20024;-73
2024/04/02 08:53:59;;;;;;;8.85;2.30;;;;;;;;;;6149390;23;20025;-74
2024/04/02 08:56:24;;;;;;;6.20;1.75;;;;;;;;;;6144153;23;20684;-73
2024/04/02 08:58:51;;;;;;;9.63;1.83;;;;;;;;;;6142567;23;20017;-73
2024/04/02 09:01:17;;;;;;;13.18;2.13;;;;;;;;;;6149845;23;20681;-73
2024/04/02 09:03:44;;;;;;;8.20;1.92;;;;;;;;;;6144380;23;20024;-72
2024/04/02 09:06:09;;;;;;;9.93;2.00;;;;;;;;;;6149389;23;20025;-72
2024/04/02 09:08:42;;;;;;;10.07;2.10;;;;;;;;;;6147805;23;20704;-75
2024/04/02 09:11:07;;;;;;;9.32;2.05;;;;;;;;;;6138768;23;20017;-73
2024/04/02 09:13:33;;;;;;;11.63;1.95;;;;;;;;;;6150360;23;20040;-73
2024/04/02 09:15:58;;;;;;;11.73;2.20;;;;;;;;;;6144071;23;20327;-73
2024/04/02 09:18:29;;;;;;;7.50;1.98;;;;;;;;;;6126091;23;21004;-73
2024/04/02 09:20:54;;;;;;;10.20;2.00;;;;;;;;;;6150552;23;20454;-72
2024/04/02 09:23:19;;;;;;;5.05;1.63;;;;;;;;;;6139736;23;20025;-71
2024/04/02 09:25:45;;;;;;;12.82;2.33;;;;;;;;;;6122065;23;20103;-72
2024/04/02 09:28:11;;;;;;;10.50;1.83;;;;;;;;;;6118486;23;20029;-72
2024/04/02 09:30:37;;;;;;;11.73;2.58;;;;;;;;;;6150045;23;20109;-72
2024/04/02 09:33:03;;;;;;;12.82;2.35;;;;;;;;;;6144623;23;20072;-73
2024/04/02 09:35:47;;;;;;;10.80;2.58;;;;;;;;;;6148125;23;20032;-72
2024/04/02 09:38:14;;;;;;;13.90;3.08;;;;;;;;;;6120020;23;20021;-73
2024/04/02 09:40:41;;;;;;;7.95;1.55;;;;;;;;;;6137720;23;20028;-73
2024/04/02 09:43:08;;;;;;;11.07;2.20;;;;;;;;;;6124524;23;20051;-73
2024/04/02 09:45:33;;;;;;;7.97;1.52;;;;;;;;;;6143675;23;20029;-73
2024/04/02 09:47:59;;;;;;;7.97;2.10;;;;;;;;;;6149817;23;20069;-72
2024/04/02 09:50:26;;;;;;;11.18;2.13;;;;;;;;;;6148667;23;20032;-72
2024/04/02 09:52:53;;;;;;;7.63;1.90;;;;;;;;;;6114152;23;20021;-73
2024/04/02 09:55:19;;;;;;;9.98;2.05;;;;;;;;;;6144870;23;20025;-73
2024/04/02 09:57:45;;;;;;;11.15;2.88;;;;;;;;;;6143224;23;20029;-73
2024/04/02 10:00:10;;;;;;;9.68;2.13;;;;;;;;;;6149811;23;20021;-72
2024/04/02 10:02:37;;;;;;;8.43;1.77;;;;;;;;;;6118816;23;20017;-72
2024/04/02 10:05:04;;;;;;;7.35;1.95;;;;;;;;;;6125228;23;20017;-72
2024/04/02 10:07:30;;;;;;;10.95;2.03;;;;;;;;;;6120749;23;20060;-72
2024/04/02 10:10:00;;;;;;;7.95;2.33;;;;;;;;;;6139757;23;20429;-72
2024/04/02 10:12:26;;;;;;;8.15;1.73;;;;;;;;;;6148957;23;20025;-72
2024/04/02 10:14:51;;;;;;;9.25;1.70;;;;;;;;;;6118665;23;20052;-73
2024/04/02 10:17:17;;;;;;;8.00;2.20;;;;;;;;;;6149562;23;20021;-72
2024/04/02 10:19:43;;;;;;;7.93;1.50;;;;;;;;;;6121939;23;20071;-72
2024/04/02 10:22:08;;;;;;;9.30;1.85;;;;;;;;;;6137259;23;20021;-72
2024/04/02 10:24:35;;;;;;;7.32;1.90;;;;;;;;;;6150104;23;20028;-73
2024/04/02 10:27:03;;;;;;;12.13;1.65;;;;;;;;;;6142920;23;20079;-72
2024/04/02 10:29:29;;;;;;;6.50;1.45;;;;;;;;;;6149321;23;20029;-72
2024/04/02 10:31:56;;;;;;;7.97;2.42;;;;;;;;;;6147329;23;20399;-73
2024/04/02 10:34:23;;;;;;;7.18;1.65;;;;;;;;;;6140958;23;20483;-72
2024/04/02 10:36:48;;;;;;;10.15;1.55;;;;;;;;;;6120187;23;20032;-72
2024/04/02 10:39:13;;;;;;;8.63;1.65;;;;;;;;;;6142079;23;20064;-72
2024/04/02 10:41:40;;;;;;;10.15;1.90;;;;;;;;;;6149744;23;20040;-72
2024/04/02 10:44:06;;;;;;;7.55;1.80;;;;;;;;;;6142137;23;20025;-72
2024/04/02 10:46:32;;;;;;;10.05;1.35;;;;;;;;;;6149539;23;20037;-72
2024/04/02 10:49:02;;;;;;;9.40;1.70;;;;;;;;;;6145642;23;20021;-72
2024/04/02 10:51:28;;;;;;;4.97;1.55;;;;;;;;;;6138231;23;20025;-71
2024/04/02 10:53:54;;;;;;;6.97;2.28;;;;;;;;;;6149414;23;20024;-74
2024/04/02 10:56:21;;;;;;;5.72;1.70;;;;;;;;;;6138524;23;20028;-74
2024/04/02 10:58:47;;;;;;;6.55;1.80;;;;;;;;;;6124837;23;20021;-73
2024/04/02 11:01:13;;;;;;;6.78;1.65;;;;;;;;;;6148700;23;20040;-76
2024/04/02 11:03:39;;;;;;;5.50;1.48;;;;;;;;;;6137218;23;20028;-73
2024/04/02 11:06:04;;;;;;;6.10;1.30;;;;;;;;;;6146842;23;20074;-74
2024/04/02 11:08:30;;;;;;;6.60;1.70;;;;;;;;;;6143222;23;20028;-72
2024/04/02 11:10:55;;;;;;;8.38;2.08;;;;;;;;;;6148059;23;20029;-72
2024/04/02 11:13:25;;;;;;;6.78;1.70;;;;;;;;;;6125028;23;20636;-71
2024/04/02 11:15:51;;;;;;;9.00;2.25;;;;;;;;;;6138705;23;20029;-73
2024/04/02 11:18:23;;;;;;;8.73;1.80;;;;;;;;;;6143649;23;20032;-72
2024/04/02 11:20:49;;;;;;;7.00;1.80;;;;;;;;;;6140879;23;20083;-72
2024/04/02 11:26:06;;;;;;;9.07;1.90;;;;;;;;;;6142269;23;20095;-74
2024/04/02 11:28:31;;;;;;;6.85;1.95;;;;;;;;;;6149836;23;20028;-73
2024/04/02 11:30:57;;;;;;;4.88;1.85;;;;;;;;;;6144793;23;20021;-72
2024/04/02 11:33:22;;;;;;;9.48;2.22;;;;;;;;;;6138272;23;20020;-73
2024/04/02 11:35:48;;;;;;;6.13;1.75;;;;;;;;;;6148901;23;20029;-74
2024/04/02 11:38:13;;;;;;;6.05;1.98;;;;;;;;;;6141306;23;20021;-74
2024/04/02 11:40:39;;;;;;;9.68;1.90;;;;;;;;;;6124427;23;20688;-74
2024/04/02 11:43:04;;;;;;;4.30;1.85;;;;;;;;;;6149018;23;20960;-73
2024/04/02 11:45:31;;;;;;;7.57;1.80;;;;;;;;;;6138797;23;20020;-74
2024/04/02 11:47:56;;;;;;;5.95;1.75;;;;;;;;;;6168730;23;20059;-74
2024/04/02 11:50:22;;;;;;;7.18;2.00;;;;;;;;;;6114707;23;20079;-74
2024/04/02 11:52:49;;;;;;;10.57;1.65;;;;;;;;;;6148572;23;20035;-73
2024/04/02 11:55:15;;;;;;;5.53;1.77;;;;;;;;;;6118047;23;20021;-73
2024/04/02 12:00:24;;;;;;;5.50;1.70;;;;;;;;;;6141063;23;20040;-74
2024/04/02 12:02:51;;;;;;;8.90;1.70;;;;;;;;;;6141864;23;20025;-74
2024/04/02 12:05:16;;;;;;;3.53;1.60;;;;;;;;;;6148722;23;20017;-75
2024/04/02 12:07:42;;;;;;;5.05;1.83;;;;;;;;;;6142128;23;20664;-73
2024/04/02 12:10:08;;;;;;;6.72;1.77;;;;;;;;;;6124120;23;20025;-73
2024/04/02 12:12:34;;;;;;;5.70;1.75;;;;;;;;;;6146122;23;20079;-74
2024/04/02 12:15:00;;;;;;;3.60;1.45;;;;;;;;;;6138408;23;20028;-73
2024/04/02 12:17:26;;;;;;;3.35;1.42;;;;;;;;;;6150027;23;20419;-73
2024/04/02 12:19:53;;;;;;;5.65;1.58;;;;;;;;;;6143992;23;20112;-72
2024/04/02 12:22:19;;;;;;;6.80;1.35;;;;;;;;;;6149839;23;20020;-74
2024/04/02 12:24:44;;;;;;;5.13;1.65;;;;;;;;;;6151015;23;20078;-73
2024/04/02 12:27:10;;;;;;;5.10;1.40;;;;;;;;;;6137697;23;20102;-74
2024/04/02 12:29:38;;;;;;;7.22;1.70;;;;;;;;;;6122658;23;20340;-73
2024/04/02 12:32:05;;;;;;;8.10;1.67;;;;;;;;;;6142312;23;20021;-72
2024/04/02 12:34:31;;;;;;;4.93;1.73;;;;;;;;;;6151839;23;20025;-72
2024/04/02 12:36:57;;;;;;;3.28;1.48;;;;;;;;;;6122861;23;20028;-73
2024/04/02 12:39:22;;;;;;;4.30;1.40;;;;;;;;;;6146237;23;20545;-74
2024/04/02 12:41:48;;;;;;;8.55;1.77;;;;;;;;;;6146053;23;20569;-75
2024/04/02 12:44:13;;;;;;;6.18;1.67;;;;;;;;;;6138570;23;20099;-75
2024/04/02 12:46:38;;;;;;;5.95;1.73;;;;;;;;;;6126591;23;20108;-75
2024/04/02 12:49:09;;;;;;;5.20;2.00;;;;;;;;;;6144767;23;20059;-74
2024/04/02 12:51:35;;;;;;;6.28;2.22;;;;;;;;;;6125785;23;20020;-73
2024/04/02 12:54:00;;;;;;;7.55;1.85;;;;;;;;;;6151097;23;20080;-74
2024/04/02 12:56:26;;;;;;;7.30;2.20;;;;;;;;;;6138958;23;20347;-73
2024/04/02 12:58:55;;;;;;;6.18;1.52;;;;;;;;;;6146596;23;20048;-72
2024/04/02 13:01:20;;;;;;;3.78;1.42;;;;;;;;;;6143207;23;20028;-74
2024/04/02 13:03:46;;;;;;;5.40;1.63;;;;;;;;;;6151092;23;20024;-72
2024/04/02 13:06:12;;;;;;;5.75;1.50;;;;;;;;;;6149977;23;20024;-74
2024/04/02 13:08:41;;;;;;;5.72;1.30;;;;;;;;;;6144246;23;20025;-75
2024/04/02 13:11:08;;;;;;;8.60;1.60;;;;;;;;;;6120452;23;20029;-73
2024/04/02 13:13:33;;;;;;;9.85;1.75;;;;;;;;;;6139205;23;20025;-73
2024/04/02 13:16:17;;;;;;;8.60;1.88;;;;;;;;;;6150760;23;20079;-73
2024/04/02 13:18:43;;;;;;;8.93;2.30;;;;;;;;;;6147462;23;20021;-71
2024/04/02 13:21:09;;;;;;;6.68;1.92;;;;;;;;;;6145721;23;20021;-72
2024/04/02 13:23:34;;;;;;;5.97;1.77;;;;;;;;;;6125688;23;20071;-73
2024/04/02 13:26:09;;;;;;;6.40;2.05;;;;;;;;;;6137234;23;20024;-72
2024/04/02 13:28:35;;;;;;;5.53;1.95;;;;;;;;;;6149927;23;20833;-72
2024/04/02 13:31:05;;;;;;;6.85;1.83;;;;;;;;;;6144403;23;20861;-74
2024/04/02 13:33:30;;;;;;;6.15;1.98;;;;;;;;;;6150051;23;20072;-73
2024/04/02 13:35:56;;;;;;;4.15;1.70;;;;;;;;;;6149574;23;20024;-75
2024/04/02 13:38:21;;;;;;;7.28;1.92;;;;;;;;;;6138029;23;20027;-73
2024/04/02 13:40:48;;;;;;;3.35;1.63;;;;;;;;;;6145990;23;20021;-75
2024/04/02 13:43:14;;;;;;;6.60;1.98;;;;;;;;;;6142291;23;20830;-74
2024/04/02 13:45:39;;;;;;;8.32;3.03;;;;;;;;;;6150423;23;20084;-75
2024/04/02 13:48:05;;;;;;;4.38;1.77;;;;;;;;;;6123608;23;20021;-72
2024/04/02 13:50:30;;;;;;;4.88;1.90;;;;;;;;;;6145534;23;20079;-72
2024/04/02 13:52:55;;;;;;;7.65;2.20;;;;;;;;;;6145808;23;20025;-73
2024/04/02 13:55:21;;;;;;;6.32;1.90;;;;;;;;;;6138350;23;20021;-73
2024/04/02 13:57:46;;;;;;;6.13;1.80;;;;;;;;;;6124490;23;20399;-73
2024/04/02 14:00:12;;;;;;;9.63;2.03;;;;;;;;;;6143718;23;20675;-75
2024/04/02 14:02:39;;;;;;;5.63;1.65;;;;;;;;;;6124755;23;20025;-74
2024/04/02 14:05:05;;;;;;;6.55;1.80;;;;;;;;;;6150356;23;20035;-73
2024/04/02 14:07:32;;;;;;;4.45;1.95;;;;;;;;;;6137878;23;20029;-71
2024/04/02 14:09:58;;;;;;;5.10;1.67;;;;;;;;;;6147855;23;20084;-74
2024/04/02 14:12:23;;;;;;;7.20;2.40;;;;;;;;;;6142185;23;20025;-75
2024/04/02 14:14:49;;;;;;;5.20;1.70;;;;;;;;;;6149214;23;20025;-73
2024/04/02 14:17:14;;;;;;;7.90;1.90;;;;;;;;;;6149379;23;20652;-74
2024/04/02 14:19:39;;;;;;;6.43;1.90;;;;;;;;;;6116700;23;20029;-73
2024/04/02 14:22:05;;;;;;;6.82;2.22;;;;;;;;;;6142721;23;20028;-73
2024/04/02 14:24:30;;;;;;;4.97;1.70;;;;;;;;;;6143052;23;20095;-72
2024/04/02 14:26:56;;;;;;;6.43;1.92;;;;;;;;;;6149032;23;20048;-73
2024/04/02 14:29:21;;;;;;;7.95;2.63;;;;;;;;;;6125034;23;20021;-72
2024/04/02 14:31:47;;;;;;;8.00;2.25;;;;;;;;;;6116693;23;20493;-73
2024/04/02 14:34:13;;;;;;;7.25;2.28;;;;;;;;;;6146171;23;20025;-72
2024/04/02 14:36:38;;;;;;;6.53;2.28;;;;;;;;;;6136483;23;20107;-73
2024/04/02 14:39:04;;;;;;;6.80;2.35;;;;;;;;;;6148753;23;20758;-71